sensor_id;sensor_type;location;lat;lon;timestamp;P1;durP1;ratioP1;P2;durP2;ratioP2
12224;SDS011;6175;50.956;11.064;2022-12-20T00:00:55;7.28;;;5.90;;
12224;SDS011;6175;50.956;11.064;2022-12-20T00:03:24;8.18;;;6.10;;
12224;SDS011;6175;50.956;11.064;2022-12-20T00:05:50;8.85;;;6.80;;
12224;SDS011;6175;50.956;11.064;2022-12-20T00:08:17;9.93;;;6.55;;
12224;SDS011;6175;50.956;11.064;2022-12-20T00:10:44;8.23;;;6.15;;
12224;SDS011;6175;50.956;11.064;2022-12-20T00:13:12;6.13;;;5.15;;
12224;SDS011;6175;50.956;11.064;2022-12-20T00:15:39;7.35;;;5.90;;
12224;SDS011;6175;50.956;11.064;2022-12-20T00:18:06;7.78;;;6.32;;
12224;SDS011;6175;50.956;11.064;2022-12-20T00:20:34;6.63;;;5.85;;
12224;SDS011;6175;50.956;11.064;2022-12-20T00:23:01;7.78;;;5.80;;
12224;SDS011;6175;50.956;11.064;2022-12-20T00:25:28;7.07;;;5.43;;
12224;SDS011;6175;50.956;11.064;2022-12-20T00:27:55;7.63;;;5.35;;
12224;SDS011;6175;50.956;11.064;2022-12-20T00:30:22;10.23;;;6.20;;
12224;SDS011;6175;50.956;11.064;2022-12-20T00:32:49;6.72;;;5.40;;
12224;SDS011;6175;50.956;11.064;2022-12-20T00:35:16;7.88;;;6.22;;
12224;SDS011;6175;50.956;11.064;2022-12-20T00:37:45;10.57;;;7.03;;
12224;SDS011;6175;50.956;11.064;2022-12-20T00:40:12;7.97;;;5.97;;
12224;SDS011;6175;50.956;11.064;2022-12-20T00:42:39;8.18;;;6.53;;
12224;SDS011;6175;50.956;11.064;2022-12-20T00:45:07;8.02;;;6.53;;
12224;SDS011;6175;50.956;11.064;2022-12-20T00:47:34;8.82;;;6.45;;
12224;SDS011;6175;50.956;11.064;2022-12-20T00:50:01;9.15;;;6.55;;
12224;SDS011;6175;50.956;11.064;2022-12-20T00:52:29;8.65;;;6.13;;
12224;SDS011;6175;50.956;11.064;2022-12-20T00:54:57;8.07;;;6.32;;
12224;SDS011;6175;50.956;11.064;2022-12-20T00:57:24;11.15;;;7.00;;
12224;SDS011;6175;50.956;11.064;2022-12-20T00:59:51;9.27;;;6.65;;
12224;SDS011;6175;50.956;11.064;2022-12-20T01:02:17;8.45;;;6.60;;
12224;SDS011;6175;50.956;11.064;2022-12-20T01:04:44;8.52;;;6.68;;
12224;SDS011;6175;50.956;11.064;2022-12-20T01:07:11;7.82;;;6.30;;
12224;SDS011;6175;50.956;11.064;2022-12-20T01:09:38;7.35;;;6.05;;
12224;SDS011;6175;50.956;11.064;2022-12-20T01:12:07;9.07;;;7.10;;
12224;SDS011;6175;50.956;11.064;2022-12-20T01:14:34;9.30;;;7.00;;
12224;SDS011;6175;50.956;11.064;2022-12-20T01:17:01;9.95;;;7.45;;
12224;SDS011;6175;50.956;11.064;2022-12-20T01:19:28;9.70;;;7.50;;
12224;SDS011;6175;50.956;11.064;2022-12-20T01:21:55;8.68;;;6.80;;
12224;SDS011;6175;50.956;11.064;2022-12-20T01:24:22;8.63;;;7.32;;
12224;SDS011;6175;50.956;11.064;2022-12-20T01:26:49;7.82;;;6.03;;
12224;SDS011;6175;50.956;11.064;2022-12-20T01:29:18;9.77;;;6.57;;
12224;SDS011;6175;50.956;11.064;2022-12-20T01:31:45;8.48;;;5.97;;
12224;SDS011;6175;50.956;11.064;2022-12-20T01:34:13;8.07;;;6.05;;
12224;SDS011;6175;50.956;11.064;2022-12-20T01:36:40;9.25;;;6.75;;
12224;SDS011;6175;50.956;11.064;2022-12-20T01:39:08;7.63;;;6.15;;
12224;SDS011;6175;50.956;11.064;2022-12-20T01:41:37;9.35;;;6.40;;
12224;SDS011;6175;50.956;11.064;2022-12-20T01:44:47;8.27;;;6.15;;
12224;SDS011;6175;50.956;11.064;2022-12-20T01:47:12;7.00;;;5.57;;
12224;SDS011;6175;50.956;11.064;2022-12-20T01:49:39;7.93;;;6.10;;
12224;SDS011;6175;50.956;11.064;2022-12-20T01:52:09;7.50;;;6.68;;
12224;SDS011;6175;50.956;11.064;2022-12-20T01:54:39;8.15;;;6.35;;
12224;SDS011;6175;50.956;11.064;2022-12-20T01:57:12;6.90;;;5.53;;
12224;SDS011;6175;50.956;11.064;2022-12-20T01:59:42;8.35;;;6.60;;
12224;SDS011;6175;50.956;11.064;2022-12-20T02:02:12;8.45;;;6.20;;
12224;SDS011;6175;50.956;11.064;2022-12-20T02:04:39;8.48;;;5.90;;
12224;SDS011;6175;50.956;11.064;2022-12-20T02:07:07;8.27;;;5.80;;
12224;SDS011;6175;50.956;11.064;2022-12-20T02:09:37;6.78;;;5.60;;
12224;SDS011;6175;50.956;11.064;2022-12-20T02:12:07;8.30;;;6.32;;
12224;SDS011;6175;50.956;11.064;2022-12-20T02:14:42;8.52;;;6.55;;
12224;SDS011;6175;50.956;11.064;2022-12-20T02:17:25;7.72;;;5.95;;
12224;SDS011;6175;50.956;11.064;2022-12-20T02:20:10;7.85;;;6.35;;
12224;SDS011;6175;50.956;11.064;2022-12-20T02:22:57;7.75;;;6.10;;
12224;SDS011;6175;50.956;11.064;2022-12-20T02:25:43;10.95;;;6.10;;
12224;SDS011;6175;50.956;11.064;2022-12-20T02:28:22;10.13;;;6.25;;
12224;SDS011;6175;50.956;11.064;2022-12-20T02:31:07;9.60;;;7.43;;
12224;SDS011;6175;50.956;11.064;2022-12-20T02:33:37;8.77;;;6.40;;
12224;SDS011;6175;50.956;11.064;2022-12-20T02:36:07;9.40;;;7.07;;
12224;SDS011;6175;50.956;11.064;2022-12-20T02:38:35;7.85;;;6.55;;
12224;SDS011;6175;50.956;11.064;2022-12-20T02:41:04;9.68;;;6.22;;
12224;SDS011;6175;50.956;11.064;2022-12-20T02:43:35;8.40;;;6.68;;
12224;SDS011;6175;50.956;11.064;2022-12-20T02:46:24;8.90;;;6.60;;
12224;SDS011;6175;50.956;11.064;2022-12-20T02:48:52;8.07;;;6.55;;
12224;SDS011;6175;50.956;11.064;2022-12-20T02:51:21;10.35;;;6.80;;
12224;SDS011;6175;50.956;11.064;2022-12-20T02:53:51;8.98;;;6.68;;
12224;SDS011;6175;50.956;11.064;2022-12-20T02:56:19;8.48;;;7.00;;
12224;SDS011;6175;50.956;11.064;2022-12-20T02:58:52;8.95;;;7.43;;
12224;SDS011;6175;50.956;11.064;2022-12-20T03:01:25;9.73;;;7.53;;
12224;SDS011;6175;50.956;11.064;2022-12-20T03:03:56;9.43;;;7.45;;
12224;SDS011;6175;50.956;11.064;2022-12-20T03:06:24;11.20;;;7.47;;
12224;SDS011;6175;50.956;11.064;2022-12-20T03:08:51;11.60;;;7.88;;
12224;SDS011;6175;50.956;11.064;2022-12-20T03:11:18;12.35;;;8.07;;
12224;SDS011;6175;50.956;11.064;2022-12-20T03:13:45;10.55;;;7.53;;
12224;SDS011;6175;50.956;11.064;2022-12-20T03:16:12;10.75;;;7.88;;
12224;SDS011;6175;50.956;11.064;2022-12-20T03:18:40;9.25;;;7.78;;
12224;SDS011;6175;50.956;11.064;2022-12-20T03:21:09;11.02;;;8.07;;
12224;SDS011;6175;50.956;11.064;2022-12-20T03:23:36;9.20;;;7.47;;
12224;SDS011;6175;50.956;11.064;2022-12-20T03:26:03;10.10;;;7.80;;
12224;SDS011;6175;50.956;11.064;2022-12-20T03:28:30;9.20;;;6.88;;
12224;SDS011;6175;50.956;11.064;2022-12-20T03:30:58;8.20;;;6.47;;
12224;SDS011;6175;50.956;11.064;2022-12-20T03:33:24;8.52;;;6.53;;
12224;SDS011;6175;50.956;11.064;2022-12-20T03:35:53;7.35;;;6.05;;
12224;SDS011;6175;50.956;11.064;2022-12-20T03:38:20;9.07;;;6.57;;
12224;SDS011;6175;50.956;11.064;2022-12-20T03:40:47;7.05;;;5.78;;
12224;SDS011;6175;50.956;11.064;2022-12-20T03:43:14;9.40;;;6.82;;
12224;SDS011;6175;50.956;11.064;2022-12-20T03:45:41;8.95;;;6.88;;
12224;SDS011;6175;50.956;11.064;2022-12-20T03:48:08;9.60;;;6.80;;
12224;SDS011;6175;50.956;11.064;2022-12-20T03:50:35;7.38;;;6.55;;
12224;SDS011;6175;50.956;11.064;2022-12-20T03:53:04;9.88;;;7.07;;
12224;SDS011;6175;50.956;11.064;2022-12-20T03:55:31;9.30;;;6.28;;
12224;SDS011;6175;50.956;11.064;2022-12-20T03:57:58;8.50;;;6.13;;
12224;SDS011;6175;50.956;11.064;2022-12-20T04:00:24;7.57;;;5.93;;
12224;SDS011;6175;50.956;11.064;2022-12-20T04:02:52;6.90;;;5.57;;
12224;SDS011;6175;50.956;11.064;2022-12-20T04:05:19;9.60;;;6.28;;
12224;SDS011;6175;50.956;11.064;2022-12-20T04:07:47;7.80;;;5.45;;
12224;SDS011;6175;50.956;11.064;2022-12-20T04:10:16;6.88;;;5.50;;
12224;SDS011;6175;50.956;11.064;2022-12-20T04:12:43;8.73;;;6.10;;
12224;SDS011;6175;50.956;11.064;2022-12-20T04:15:09;6.47;;;5.32;;
12224;SDS011;6175;50.956;11.064;2022-12-20T04:17:36;6.93;;;5.65;;
12224;SDS011;6175;50.956;11.064;2022-12-20T04:20:04;6.97;;;5.22;;
12224;SDS011;6175;50.956;11.064;2022-12-20T04:22:44;7.88;;;5.55;;
12224;SDS011;6175;50.956;11.064;2022-12-20T04:25:11;6.90;;;5.88;;
12224;SDS011;6175;50.956;11.064;2022-12-20T04:27:40;6.07;;;5.05;;
12224;SDS011;6175;50.956;11.064;2022-12-20T04:30:07;5.90;;;4.93;;
12224;SDS011;6175;50.956;11.064;2022-12-20T04:32:35;5.72;;;5.13;;
12224;SDS011;6175;50.956;11.064;2022-12-20T04:35:02;5.78;;;5.10;;
12224;SDS011;6175;50.956;11.064;2022-12-20T04:37:30;6.60;;;5.38;;
12224;SDS011;6175;50.956;11.064;2022-12-20T04:39:57;5.65;;;4.88;;
12224;SDS011;6175;50.956;11.064;2022-12-20T04:42:24;6.30;;;5.03;;
12224;SDS011;6175;50.956;11.064;2022-12-20T04:44:52;8.10;;;5.60;;
12224;SDS011;6175;50.956;11.064;2022-12-20T04:47:19;5.10;;;4.60;;
12224;SDS011;6175;50.956;11.064;2022-12-20T04:49:46;8.13;;;5.50;;
12224;SDS011;6175;50.956;11.064;2022-12-20T04:52:13;7.10;;;5.45;;
12224;SDS011;6175;50.956;11.064;2022-12-20T04:54:57;5.65;;;4.78;;
12224;SDS011;6175;50.956;11.064;2022-12-20T04:57:24;7.28;;;4.65;;
12224;SDS011;6175;50.956;11.064;2022-12-20T04:59:53;5.53;;;4.43;;
12224;SDS011;6175;50.956;11.064;2022-12-20T05:02:20;5.38;;;4.32;;
12224;SDS011;6175;50.956;11.064;2022-12-20T05:04:47;5.75;;;4.70;;
12224;SDS011;6175;50.956;11.064;2022-12-20T05:07:14;7.00;;;4.50;;
12224;SDS011;6175;50.956;11.064;2022-12-20T05:09:41;5.68;;;4.50;;
12224;SDS011;6175;50.956;11.064;2022-12-20T05:12:08;7.15;;;4.93;;
12224;SDS011;6175;50.956;11.064;2022-12-20T05:14:36;6.45;;;4.10;;
12224;SDS011;6175;50.956;11.064;2022-12-20T05:17:05;5.70;;;4.40;;
12224;SDS011;6175;50.956;11.064;2022-12-20T05:19:33;6.82;;;5.20;;
12224;SDS011;6175;50.956;11.064;2022-12-20T05:22:00;5.25;;;4.50;;
12224;SDS011;6175;50.956;11.064;2022-12-20T05:24:45;5.68;;;4.53;;
12224;SDS011;6175;50.956;11.064;2022-12-20T05:27:29;9.27;;;4.65;;
12224;SDS011;6175;50.956;11.064;2022-12-20T05:29:56;5.43;;;4.25;;
12224;SDS011;6175;50.956;11.064;2022-12-20T05:32:25;6.60;;;4.47;;
12224;SDS011;6175;50.956;11.064;2022-12-20T05:34:52;5.32;;;4.03;;
12224;SDS011;6175;50.956;11.064;2022-12-20T05:37:19;4.18;;;3.40;;
12224;SDS011;6175;50.956;11.064;2022-12-20T05:39:46;4.10;;;3.70;;
12224;SDS011;6175;50.956;11.064;2022-12-20T05:42:14;3.70;;;3.20;;
12224;SDS011;6175;50.956;11.064;2022-12-20T05:44:41;5.13;;;3.55;;
12224;SDS011;6175;50.956;11.064;2022-12-20T05:47:08;5.70;;;3.83;;
12224;SDS011;6175;50.956;11.064;2022-12-20T05:49:37;5.95;;;3.42;;
12224;SDS011;6175;50.956;11.064;2022-12-20T05:52:04;3.97;;;3.53;;
12224;SDS011;6175;50.956;11.064;2022-12-20T05:54:31;5.10;;;3.63;;
12224;SDS011;6175;50.956;11.064;2022-12-20T05:56:59;3.55;;;3.15;;
12224;SDS011;6175;50.956;11.064;2022-12-20T05:59:26;4.00;;;3.50;;
12224;SDS011;6175;50.956;11.064;2022-12-20T06:01:53;4.28;;;3.42;;
12224;SDS011;6175;50.956;11.064;2022-12-20T06:04:20;4.93;;;3.08;;
12224;SDS011;6175;50.956;11.064;2022-12-20T06:06:49;3.80;;;3.22;;
12224;SDS011;6175;50.956;11.064;2022-12-20T06:09:16;5.10;;;3.38;;
12224;SDS011;6175;50.956;11.064;2022-12-20T06:11:44;4.97;;;3.33;;
12224;SDS011;6175;50.956;11.064;2022-12-20T06:14:11;4.28;;;3.13;;
12224;SDS011;6175;50.956;11.064;2022-12-20T06:16:39;4.93;;;3.63;;
12224;SDS011;6175;50.956;11.064;2022-12-20T06:19:05;4.30;;;3.40;;
12224;SDS011;6175;50.956;11.064;2022-12-20T06:21:33;4.15;;;3.00;;
12224;SDS011;6175;50.956;11.064;2022-12-20T06:24:02;3.70;;;2.97;;
12224;SDS011;6175;50.956;11.064;2022-12-20T06:26:29;3.92;;;2.90;;
12224;SDS011;6175;50.956;11.064;2022-12-20T06:29:00;3.25;;;2.90;;
12224;SDS011;6175;50.956;11.064;2022-12-20T06:31:27;4.30;;;3.13;;
12224;SDS011;6175;50.956;11.064;2022-12-20T06:33:54;4.07;;;3.25;;
12224;SDS011;6175;50.956;11.064;2022-12-20T06:36:21;3.50;;;3.17;;
12224;SDS011;6175;50.956;11.064;2022-12-20T06:38:48;3.47;;;2.92;;
12224;SDS011;6175;50.956;11.064;2022-12-20T06:41:17;4.03;;;3.08;;
12224;SDS011;6175;50.956;11.064;2022-12-20T06:43:44;4.75;;;3.30;;
12224;SDS011;6175;50.956;11.064;2022-12-20T06:46:11;3.58;;;3.20;;
12224;SDS011;6175;50.956;11.064;2022-12-20T06:48:38;4.30;;;3.15;;
12224;SDS011;6175;50.956;11.064;2022-12-20T06:51:05;4.22;;;3.45;;
12224;SDS011;6175;50.956;11.064;2022-12-20T06:53:32;4.10;;;2.90;;
12224;SDS011;6175;50.956;11.064;2022-12-20T06:55:59;3.45;;;2.80;;
12224;SDS011;6175;50.956;11.064;2022-12-20T06:58:28;3.28;;;2.80;;
12224;SDS011;6175;50.956;11.064;2022-12-20T07:00:55;3.33;;;2.85;;
12224;SDS011;6175;50.956;11.064;2022-12-20T07:03:22;3.25;;;2.63;;
12224;SDS011;6175;50.956;11.064;2022-12-20T07:05:50;3.67;;;2.63;;
12224;SDS011;6175;50.956;11.064;2022-12-20T07:08:18;3.22;;;2.72;;
12224;SDS011;6175;50.956;11.064;2022-12-20T07:10:45;3.63;;;3.30;;
12224;SDS011;6175;50.956;11.064;2022-12-20T07:13:12;4.80;;;4.00;;
12224;SDS011;6175;50.956;11.064;2022-12-20T07:15:41;5.00;;;4.50;;
12224;SDS011;6175;50.956;11.064;2022-12-20T07:18:08;6.15;;;4.57;;
12224;SDS011;6175;50.956;11.064;2022-12-20T07:20:35;5.68;;;4.25;;
12224;SDS011;6175;50.956;11.064;2022-12-20T07:23:02;4.75;;;4.20;;
12224;SDS011;6175;50.956;11.064;2022-12-20T07:25:30;4.95;;;4.18;;
12224;SDS011;6175;50.956;11.064;2022-12-20T07:27:57;6.30;;;4.60;;
12224;SDS011;6175;50.956;11.064;2022-12-20T07:30:24;4.95;;;4.00;;
12224;SDS011;6175;50.956;11.064;2022-12-20T07:32:52;6.13;;;3.90;;
12224;SDS011;6175;50.956;11.064;2022-12-20T07:35:19;5.25;;;4.43;;
12224;SDS011;6175;50.956;11.064;2022-12-20T07:37:46;4.80;;;3.63;;
12224;SDS011;6175;50.956;11.064;2022-12-20T07:40:14;5.22;;;4.15;;
12224;SDS011;6175;50.956;11.064;2022-12-20T07:42:41;5.20;;;4.20;;
12224;SDS011;6175;50.956;11.064;2022-12-20T07:45:08;4.85;;;4.25;;
12224;SDS011;6175;50.956;11.064;2022-12-20T07:47:36;4.60;;;4.20;;
12224;SDS011;6175;50.956;11.064;2022-12-20T07:50:05;4.30;;;3.70;;
12224;SDS011;6175;50.956;11.064;2022-12-20T07:52:33;4.78;;;3.60;;
12224;SDS011;6175;50.956;11.064;2022-12-20T07:55:04;4.40;;;4.00;;
12224;SDS011;6175;50.956;11.064;2022-12-20T07:57:34;5.50;;;3.67;;
12224;SDS011;6175;50.956;11.064;2022-12-20T08:00:05;6.20;;;3.92;;
12224;SDS011;6175;50.956;11.064;2022-12-20T08:02:34;4.25;;;3.30;;
12224;SDS011;6175;50.956;11.064;2022-12-20T08:05:06;2.92;;;2.72;;
12224;SDS011;6175;50.956;11.064;2022-12-20T08:07:34;5.38;;;3.08;;
12224;SDS011;6175;50.956;11.064;2022-12-20T08:10:03;4.15;;;2.95;;
12224;SDS011;6175;50.956;11.064;2022-12-20T08:12:32;4.07;;;2.78;;
12224;SDS011;6175;50.956;11.064;2022-12-20T08:14:59;3.40;;;2.70;;
12224;SDS011;6175;50.956;11.064;2022-12-20T08:17:26;3.33;;;3.00;;
12224;SDS011;6175;50.956;11.064;2022-12-20T08:19:53;6.95;;;4.55;;
12224;SDS011;6175;50.956;11.064;2022-12-20T08:22:23;6.78;;;4.65;;
12224;SDS011;6175;50.956;11.064;2022-12-20T08:24:49;5.47;;;4.97;;
12224;SDS011;6175;50.956;11.064;2022-12-20T08:27:16;6.63;;;5.57;;
12224;SDS011;6175;50.956;11.064;2022-12-20T08:29:44;8.30;;;5.53;;
12224;SDS011;6175;50.956;11.064;2022-12-20T08:32:11;6.47;;;5.43;;
12224;SDS011;6175;50.956;11.064;2022-12-20T08:34:38;6.78;;;5.45;;
12224;SDS011;6175;50.956;11.064;2022-12-20T08:37:05;5.50;;;4.97;;
12224;SDS011;6175;50.956;11.064;2022-12-20T08:39:34;9.38;;;6.03;;
12224;SDS011;6175;50.956;11.064;2022-12-20T08:42:03;5.50;;;5.00;;
12224;SDS011;6175;50.956;11.064;2022-12-20T08:44:31;7.47;;;6.30;;
12224;SDS011;6175;50.956;11.064;2022-12-20T08:46:59;8.30;;;5.82;;
12224;SDS011;6175;50.956;11.064;2022-12-20T08:49:26;7.95;;;6.82;;
12224;SDS011;6175;50.956;11.064;2022-12-20T08:51:52;8.32;;;6.20;;
12224;SDS011;6175;50.956;11.064;2022-12-20T08:54:19;7.88;;;5.78;;
12224;SDS011;6175;50.956;11.064;2022-12-20T08:56:48;8.15;;;6.15;;
12224;SDS011;6175;50.956;11.064;2022-12-20T08:59:15;7.68;;;6.40;;
12224;SDS011;6175;50.956;11.064;2022-12-20T09:01:42;7.60;;;6.22;;
12224;SDS011;6175;50.956;11.064;2022-12-20T09:04:09;7.60;;;6.25;;
12224;SDS011;6175;50.956;11.064;2022-12-20T09:06:37;6.22;;;5.63;;
12224;SDS011;6175;50.956;11.064;2022-12-20T09:09:04;7.93;;;6.07;;
12224;SDS011;6175;50.956;11.064;2022-12-20T09:11:32;8.95;;;7.45;;
12224;SDS011;6175;50.956;11.064;2022-12-20T09:14:00;12.07;;;8.98;;
12224;SDS011;6175;50.956;11.064;2022-12-20T09:16:28;10.52;;;5.72;;
12224;SDS011;6175;50.956;11.064;2022-12-20T09:18:57;3.72;;;2.67;;
12224;SDS011;6175;50.956;11.064;2022-12-20T09:21:26;2.58;;;1.77;;
12224;SDS011;6175;50.956;11.064;2022-12-20T09:23:54;2.20;;;1.92;;
12224;SDS011;6175;50.956;11.064;2022-12-20T09:26:22;1.52;;;1.42;;
12224;SDS011;6175;50.956;11.064;2022-12-20T09:28:49;2.20;;;1.90;;
12224;SDS011;6175;50.956;11.064;2022-12-20T09:31:18;2.08;;;1.50;;
12224;SDS011;6175;50.956;11.064;2022-12-20T09:33:46;1.70;;;1.60;;
12224;SDS011;6175;50.956;11.064;2022-12-20T09:36:15;2.95;;;1.80;;
12224;SDS011;6175;50.956;11.064;2022-12-20T09:38:43;3.40;;;1.75;;
12224;SDS011;6175;50.956;11.064;2022-12-20T09:41:16;1.48;;;1.38;;
12224;SDS011;6175;50.956;11.064;2022-12-20T09:43:48;2.40;;;1.58;;
12224;SDS011;6175;50.956;11.064;2022-12-20T09:46:16;2.10;;;1.80;;
12224;SDS011;6175;50.956;11.064;2022-12-20T09:48:44;1.75;;;1.65;;
12224;SDS011;6175;50.956;11.064;2022-12-20T09:51:16;1.67;;;1.45;;
12224;SDS011;6175;50.956;11.064;2022-12-20T09:53:53;2.13;;;1.55;;
12224;SDS011;6175;50.956;11.064;2022-12-20T09:56:29;2.65;;;1.90;;
12224;SDS011;6175;50.956;11.064;2022-12-20T09:59:00;1.90;;;1.70;;
12224;SDS011;6175;50.956;11.064;2022-12-20T10:01:31;2.67;;;1.85;;
12224;SDS011;6175;50.956;11.064;2022-12-20T10:04:01;3.03;;;2.15;;
12224;SDS011;6175;50.956;11.064;2022-12-20T10:06:32;2.42;;;1.98;;
12224;SDS011;6175;50.956;11.064;2022-12-20T10:09:09;2.55;;;2.00;;
12224;SDS011;6175;50.956;11.064;2022-12-20T10:11:47;2.70;;;2.28;;
12224;SDS011;6175;50.956;11.064;2022-12-20T10:14:27;2.33;;;2.13;;
12224;SDS011;6175;50.956;11.064;2022-12-20T10:17:10;2.47;;;2.28;;
12224;SDS011;6175;50.956;11.064;2022-12-20T10:19:49;2.78;;;2.30;;
12224;SDS011;6175;50.956;11.064;2022-12-20T10:22:37;4.38;;;2.97;;
12224;SDS011;6175;50.956;11.064;2022-12-20T10:25:14;3.88;;;2.78;;
12224;SDS011;6175;50.956;11.064;2022-12-20T10:27:43;5.95;;;4.07;;
12224;SDS011;6175;50.956;11.064;2022-12-20T10:30:13;4.85;;;3.20;;
12224;SDS011;6175;50.956;11.064;2022-12-20T10:32:45;4.00;;;3.53;;
12224;SDS011;6175;50.956;11.064;2022-12-20T10:35:17;3.35;;;3.05;;
12224;SDS011;6175;50.956;11.064;2022-12-20T10:37:55;3.22;;;2.63;;
12224;SDS011;6175;50.956;11.064;2022-12-20T10:40:24;3.35;;;2.97;;
12224;SDS011;6175;50.956;11.064;2022-12-20T10:42:53;3.75;;;3.03;;
12224;SDS011;6175;50.956;11.064;2022-12-20T10:45:26;5.28;;;3.40;;
12224;SDS011;6175;50.956;11.064;2022-12-20T10:48:06;4.10;;;3.10;;
12224;SDS011;6175;50.956;11.064;2022-12-20T10:50:54;5.25;;;3.33;;
12224;SDS011;6175;50.956;11.064;2022-12-20T10:53:22;3.10;;;2.80;;
12224;SDS011;6175;50.956;11.064;2022-12-20T10:55:51;3.50;;;3.00;;
12224;SDS011;6175;50.956;11.064;2022-12-20T10:58:21;4.15;;;3.17;;
12224;SDS011;6175;50.956;11.064;2022-12-20T11:01:04;3.75;;;2.75;;
12224;SDS011;6175;50.956;11.064;2022-12-20T11:03:49;3.33;;;2.70;;
12224;SDS011;6175;50.956;11.064;2022-12-20T11:06:20;4.53;;;3.78;;
12224;SDS011;6175;50.956;11.064;2022-12-20T11:08:49;6.10;;;4.03;;
12224;SDS011;6175;50.956;11.064;2022-12-20T11:11:17;5.15;;;4.05;;
12224;SDS011;6175;50.956;11.064;2022-12-20T11:13:46;5.78;;;3.97;;
12224;SDS011;6175;50.956;11.064;2022-12-20T11:16:25;4.88;;;3.95;;
12224;SDS011;6175;50.956;11.064;2022-12-20T11:19:15;7.10;;;5.20;;
12224;SDS011;6175;50.956;11.064;2022-12-20T11:21:58;5.85;;;5.25;;
12224;SDS011;6175;50.956;11.064;2022-12-20T11:24:32;6.20;;;5.22;;
12224;SDS011;6175;50.956;11.064;2022-12-20T11:27:09;9.23;;;6.38;;
12224;SDS011;6175;50.956;11.064;2022-12-20T11:29:47;6.75;;;5.38;;
12224;SDS011;6175;50.956;11.064;2022-12-20T11:32:30;6.28;;;4.70;;
12224;SDS011;6175;50.956;11.064;2022-12-20T11:35:16;6.43;;;4.88;;
12224;SDS011;6175;50.956;11.064;2022-12-20T11:37:48;8.35;;;6.10;;
12224;SDS011;6175;50.956;11.064;2022-12-20T11:40:28;6.82;;;6.13;;
12224;SDS011;6175;50.956;11.064;2022-12-20T11:42:59;8.70;;;5.93;;
12224;SDS011;6175;50.956;11.064;2022-12-20T11:45:41;7.47;;;6.07;;
12224;SDS011;6175;50.956;11.064;2022-12-20T11:48:21;6.32;;;5.68;;
12224;SDS011;6175;50.956;11.064;2022-12-20T11:51:03;6.10;;;5.47;;
12224;SDS011;6175;50.956;11.064;2022-12-20T11:53:38;6.60;;;5.90;;
12224;SDS011;6175;50.956;11.064;2022-12-20T11:56:10;8.00;;;6.78;;
12224;SDS011;6175;50.956;11.064;2022-12-20T11:58:47;7.80;;;6.60;;
12224;SDS011;6175;50.956;11.064;2022-12-20T12:01:17;6.15;;;5.55;;
12224;SDS011;6175;50.956;11.064;2022-12-20T12:03:52;6.35;;;5.40;;
12224;SDS011;6175;50.956;11.064;2022-12-20T12:06:27;5.35;;;4.85;;
12224;SDS011;6175;50.956;11.064;2022-12-20T12:09:04;5.72;;;4.55;;
12224;SDS011;6175;50.956;11.064;2022-12-20T12:11:39;5.45;;;4.63;;
12224;SDS011;6175;50.956;11.064;2022-12-20T12:14:13;6.15;;;4.90;;
12224;SDS011;6175;50.956;11.064;2022-12-20T12:16:46;6.97;;;5.20;;
12224;SDS011;6175;50.956;11.064;2022-12-20T12:19:16;6.07;;;5.32;;
12224;SDS011;6175;50.956;11.064;2022-12-20T12:21:46;6.25;;;5.43;;
12224;SDS011;6175;50.956;11.064;2022-12-20T12:24:20;6.00;;;5.15;;
12224;SDS011;6175;50.956;11.064;2022-12-20T12:26:51;7.05;;;5.47;;
12224;SDS011;6175;50.956;11.064;2022-12-20T12:29:19;6.15;;;5.20;;
12224;SDS011;6175;50.956;11.064;2022-12-20T12:31:48;6.93;;;5.28;;
12224;SDS011;6175;50.956;11.064;2022-12-20T12:34:25;5.45;;;4.95;;
12224;SDS011;6175;50.956;11.064;2022-12-20T12:40:03;5.85;;;5.28;;
12224;SDS011;6175;50.956;11.064;2022-12-20T12:46:03;9.30;;;6.13;;
12224;SDS011;6175;50.956;11.064;2022-12-20T12:48:36;7.68;;;6.32;;
12224;SDS011;6175;50.956;11.064;2022-12-20T12:51:06;8.02;;;7.07;;
12224;SDS011;6175;50.956;11.064;2022-12-20T12:53:36;7.97;;;6.45;;
12224;SDS011;6175;50.956;11.064;2022-12-20T13:07:58;8.70;;;6.45;;
12224;SDS011;6175;50.956;11.064;2022-12-20T13:13:33;8.55;;;7.55;;
12224;SDS011;6175;50.956;11.064;2022-12-20T13:16:04;9.73;;;8.10;;
12224;SDS011;6175;50.956;11.064;2022-12-20T13:18:35;11.02;;;8.07;;
12224;SDS011;6175;50.956;11.064;2022-12-20T13:27:21;8.20;;;7.30;;
12224;SDS011;6175;50.956;11.064;2022-12-20T13:29:52;5.97;;;4.32;;
12224;SDS011;6175;50.956;11.064;2022-12-20T13:35:28;3.65;;;2.85;;
12224;SDS011;6175;50.956;11.064;2022-12-20T13:41:08;2.72;;;2.47;;
12224;SDS011;6175;50.956;11.064;2022-12-20T13:43:43;2.63;;;2.40;;
12224;SDS011;6175;50.956;11.064;2022-12-20T13:46:14;2.72;;;2.53;;
12224;SDS011;6175;50.956;11.064;2022-12-20T13:48:48;4.38;;;2.65;;
12224;SDS011;6175;50.956;11.064;2022-12-20T13:51:17;3.85;;;3.03;;
12224;SDS011;6175;50.956;11.064;2022-12-20T13:53:49;3.10;;;2.75;;
12224;SDS011;6175;50.956;11.064;2022-12-20T13:56:20;4.60;;;2.83;;
12224;SDS011;6175;50.956;11.064;2022-12-20T13:59:03;4.68;;;3.20;;
12224;SDS011;6175;50.956;11.064;2022-12-20T14:01:33;4.63;;;3.28;;
12224;SDS011;6175;50.956;11.064;2022-12-20T14:04:02;5.10;;;3.58;;
12224;SDS011;6175;50.956;11.064;2022-12-20T14:06:32;3.20;;;2.70;;
12224;SDS011;6175;50.956;11.064;2022-12-20T14:08:59;5.10;;;3.38;;
12224;SDS011;6175;50.956;11.064;2022-12-20T14:11:27;4.63;;;2.90;;
12224;SDS011;6175;50.956;11.064;2022-12-20T14:13:54;3.47;;;2.67;;
12224;SDS011;6175;50.956;11.064;2022-12-20T14:16:23;3.50;;;3.20;;
12224;SDS011;6175;50.956;11.064;2022-12-20T14:19:00;4.30;;;2.80;;
12224;SDS011;6175;50.956;11.064;2022-12-20T14:21:28;3.35;;;2.92;;
12224;SDS011;6175;50.956;11.064;2022-12-20T14:23:55;3.45;;;2.67;;
12224;SDS011;6175;50.956;11.064;2022-12-20T14:26:25;2.63;;;2.42;;
12224;SDS011;6175;50.956;11.064;2022-12-20T14:28:55;3.25;;;2.95;;
12224;SDS011;6175;50.956;11.064;2022-12-20T14:31:23;3.10;;;2.70;;
12224;SDS011;6175;50.956;11.064;2022-12-20T14:34:01;6.88;;;3.00;;
12224;SDS011;6175;50.956;11.064;2022-12-20T14:36:29;4.18;;;2.88;;
12224;SDS011;6175;50.956;11.064;2022-12-20T14:38:57;4.30;;;2.40;;
12224;SDS011;6175;50.956;11.064;2022-12-20T14:41:28;4.10;;;2.75;;
12224;SDS011;6175;50.956;11.064;2022-12-20T14:43:58;3.10;;;2.70;;
12224;SDS011;6175;50.956;11.064;2022-12-20T14:46:29;3.38;;;3.08;;
12224;SDS011;6175;50.956;11.064;2022-12-20T14:51:51;3.03;;;2.72;;
12224;SDS011;6175;50.956;11.064;2022-12-20T14:54:30;4.15;;;3.75;;
12224;SDS011;6175;50.956;11.064;2022-12-20T14:56:57;4.30;;;3.60;;
12224;SDS011;6175;50.956;11.064;2022-12-20T14:59:25;4.85;;;3.85;;
12224;SDS011;6175;50.956;11.064;2022-12-20T15:01:55;4.40;;;3.75;;
12224;SDS011;6175;50.956;11.064;2022-12-20T15:04:29;4.72;;;3.85;;
12224;SDS011;6175;50.956;11.064;2022-12-20T15:06:58;5.18;;;4.10;;
12224;SDS011;6175;50.956;11.064;2022-12-20T15:09:27;4.60;;;3.78;;
12224;SDS011;6175;50.956;11.064;2022-12-20T15:11:55;5.28;;;3.83;;
12224;SDS011;6175;50.956;11.064;2022-12-20T15:14:30;4.95;;;4.00;;
12224;SDS011;6175;50.956;11.064;2022-12-20T15:17:00;6.50;;;4.43;;
12224;SDS011;6175;50.956;11.064;2022-12-20T15:19:28;8.50;;;6.15;;
12224;SDS011;6175;50.956;11.064;2022-12-20T15:21:57;8.23;;;6.90;;
12224;SDS011;6175;50.956;11.064;2022-12-20T15:24:24;11.43;;;7.80;;
12224;SDS011;6175;50.956;11.064;2022-12-20T15:26:52;9.93;;;7.05;;
12224;SDS011;6175;50.956;11.064;2022-12-20T15:29:20;22.75;;;12.23;;
12224;SDS011;6175;50.956;11.064;2022-12-20T15:31:49;17.92;;;11.30;;
12224;SDS011;6175;50.956;11.064;2022-12-20T15:34:18;17.67;;;9.63;;
12224;SDS011;6175;50.956;11.064;2022-12-20T15:36:50;19.27;;;10.77;;
12224;SDS011;6175;50.956;11.064;2022-12-20T15:39:17;16.67;;;9.75;;